createdAt,value
2022-12-17T00:01:43.589Z,12.57
2022-12-17T00:04:50.826Z,13.47
2022-12-17T00:07:55.698Z,12.90
2022-12-17T00:11:00.491Z,11.90
2022-12-17T00:14:05.018Z,11.30
2022-12-17T00:17:09.348Z,11.80
2022-12-17T00:20:13.718Z,9.50
2022-12-17T00:23:24.424Z,11.50
2022-12-17T00:26:28.337Z,11.77
2022-12-17T00:29:32.176Z,12.13
2022-12-17T00:32:36.091Z,10.73
2022-12-17T00:35:40.167Z,11.83
2022-12-17T00:38:44.300Z,10.50
2022-12-17T00:41:48.281Z,12.47
2022-12-17T00:44:52.302Z,10.77
2022-12-17T00:47:58.620Z,10.80
2022-12-17T00:51:02.654Z,9.17
2022-12-17T00:54:06.545Z,10.50
2022-12-17T00:57:11.135Z,11.90
2022-12-17T01:00:15.095Z,11.13
2022-12-17T01:03:34.107Z,10.63
2022-12-17T01:06:38.138Z,10.63
2022-12-17T01:09:42.266Z,11.37
2022-12-17T01:12:51.847Z,12.43
2022-12-17T01:15:56.720Z,11.10
2022-12-17T01:19:00.951Z,10.93
2022-12-17T01:22:05.365Z,9.43
2022-12-17T01:25:09.480Z,11.63
2022-12-17T01:28:15.957Z,9.37
2022-12-17T01:31:20.710Z,10.97
2022-12-17T01:34:24.741Z,11.33
2022-12-17T01:37:31.333Z,11.00
2022-12-17T01:40:35.332Z,13.03
2022-12-17T01:43:53.661Z,11.60
2022-12-17T01:47:03.083Z,13.43
2022-12-17T01:50:07.200Z,11.53
2022-12-17T01:53:14.069Z,12.50
2022-12-17T01:56:18.508Z,13.07
2022-12-17T01:59:24.469Z,12.10
2022-12-17T02:02:28.702Z,10.60
2022-12-17T02:05:32.648Z,10.80
2022-12-17T02:08:59.830Z,11.47
2022-12-17T02:12:11.019Z,11.23
2022-12-17T02:15:22.450Z,13.43
2022-12-17T02:18:33.527Z,11.47
2022-12-17T02:21:39.725Z,12.00
2022-12-17T02:25:02.293Z,13.13
2022-12-17T02:28:08.517Z,11.70
2022-12-17T02:31:14.045Z,12.50
2022-12-17T02:34:17.912Z,12.47
2022-12-17T02:37:21.855Z,15.20
2022-12-17T02:40:26.883Z,13.33
2022-12-17T02:43:30.390Z,12.27
2022-12-17T02:46:34.749Z,12.50
2022-12-17T02:49:38.722Z,11.83
2022-12-17T02:52:44.611Z,12.27
2022-12-17T02:55:48.447Z,12.20
2022-12-17T02:58:52.558Z,13.53
2022-12-17T03:01:59.803Z,14.80
2022-12-17T03:05:27.601Z,11.80
2022-12-17T03:08:27.622Z,12.97
2022-12-17T03:11:31.586Z,10.83
2022-12-17T03:14:35.443Z,11.57
2022-12-17T03:17:39.527Z,12.00
2022-12-17T03:20:43.119Z,10.83
2022-12-17T03:23:47.028Z,12.80
2022-12-17T03:26:50.826Z,11.23
2022-12-17T03:29:54.647Z,11.13
2022-12-17T03:32:58.503Z,11.40
2022-12-17T03:36:02.411Z,11.30
2022-12-17T03:39:06.503Z,10.47
2022-12-17T03:42:10.479Z,12.77
2022-12-17T03:45:14.506Z,8.93
2022-12-17T03:48:30.153Z,11.10
2022-12-17T03:51:34.138Z,9.70
2022-12-17T03:54:38.165Z,9.50
2022-12-17T03:57:41.962Z,9.33
2022-12-17T04:00:45.912Z,9.93
2022-12-17T04:03:49.910Z,9.30
2022-12-17T04:06:53.846Z,10.00
2022-12-17T04:09:57.466Z,10.40
2022-12-17T04:13:01.752Z,9.40
2022-12-17T04:16:05.987Z,10.80
2022-12-17T04:19:23.651Z,10.33
2022-12-17T04:22:29.668Z,10.87
2022-12-17T04:25:33.619Z,10.80
2022-12-17T04:28:37.554Z,10.27
2022-12-17T04:31:42.449Z,10.90
2022-12-17T04:34:48.939Z,10.70
2022-12-17T04:37:55.401Z,9.80
2022-12-17T04:41:01.638Z,11.03
2022-12-17T04:44:06.069Z,9.67
2022-12-17T04:47:09.886Z,11.10
2022-12-17T04:50:14.053Z,8.63
2022-12-17T04:53:23.329Z,10.00
2022-12-17T04:56:27.271Z,11.07
2022-12-17T04:59:31.478Z,9.73
2022-12-17T05:02:40.981Z,10.80
2022-12-17T05:05:48.741Z,12.10
2022-12-17T05:08:55.031Z,11.23
2022-12-17T05:11:58.976Z,10.33
2022-12-17T05:15:02.635Z,12.93
2022-12-17T05:18:06.572Z,10.30
2022-12-17T05:21:10.972Z,11.40
2022-12-17T05:24:15.051Z,11.30
2022-12-17T05:27:18.988Z,10.77
2022-12-17T05:30:23.360Z,11.00
2022-12-17T05:33:28.056Z,10.43
2022-12-17T05:36:32.588Z,10.30
2022-12-17T05:39:36.474Z,9.43
2022-12-17T05:42:47.964Z,10.77
2022-12-17T05:45:52.047Z,10.20
2022-12-17T05:48:56.029Z,9.63
2022-12-17T05:52:00.460Z,9.37
2022-12-17T05:55:04.927Z,9.27
2022-12-17T05:58:08.897Z,9.60
2022-12-17T06:01:18.616Z,10.20
2022-12-17T06:04:22.362Z,10.77
2022-12-17T06:07:28.355Z,8.43
2022-12-17T06:10:32.334Z,9.90
2022-12-17T06:13:36.453Z,9.33
2022-12-17T06:16:43.187Z,9.43
2022-12-17T06:19:47.209Z,11.30
2022-12-17T06:22:51.105Z,11.23
2022-12-17T06:25:55.481Z,10.67
2022-12-17T06:29:00.480Z,10.13
2022-12-17T06:32:04.625Z,9.57
2022-12-17T06:35:08.485Z,10.90
2022-12-17T06:38:21.290Z,11.07
2022-12-17T06:41:25.252Z,9.03
2022-12-17T06:44:29.251Z,9.80
2022-12-17T06:47:36.726Z,9.83
2022-12-17T06:50:40.762Z,12.10
2022-12-17T06:53:47.072Z,12.87
2022-12-17T06:56:50.994Z,9.07
2022-12-17T06:59:54.928Z,9.47
2022-12-17T07:02:59.020Z,10.27
2022-12-17T07:06:03.671Z,10.33
2022-12-17T07:09:07.523Z,9.50
2022-12-17T07:12:11.426Z,9.80
2022-12-17T07:15:15.446Z,10.07
2022-12-17T07:18:21.786Z,8.83
2022-12-17T07:21:25.713Z,9.37
2022-12-17T07:24:32.075Z,9.10
2022-12-17T07:27:35.942Z,9.80
2022-12-17T07:30:40.244Z,9.80
2022-12-17T07:33:44.892Z,10.67
2022-12-17T07:36:51.381Z,11.60
2022-12-17T07:39:56.564Z,10.57
2022-12-17T07:43:03.065Z,10.70
2022-12-17T07:46:07.348Z,12.13
2022-12-17T07:49:15.355Z,12.03
2022-12-17T07:52:19.673Z,10.17
2022-12-17T07:55:24.303Z,11.43
2022-12-17T07:58:32.355Z,12.33
2022-12-17T08:01:36.722Z,12.00
2022-12-17T08:04:40.460Z,11.43
2022-12-17T08:07:46.909Z,12.20
2022-12-17T08:10:51.223Z,12.20
2022-12-17T08:13:58.693Z,10.40
2022-12-17T08:17:03.112Z,12.93
2022-12-17T08:20:07.080Z,10.10
2022-12-17T08:23:18.576Z,10.50
2022-12-17T08:26:22.695Z,9.10
2022-12-17T08:29:26.728Z,8.80
2022-12-17T08:32:30.918Z,9.53
2022-12-17T08:35:35.157Z,10.83
2022-12-17T08:38:39.002Z,10.23
2022-12-17T08:41:43.463Z,9.00
2022-12-17T08:44:47.446Z,10.27
2022-12-17T08:47:51.930Z,9.17
2022-12-17T08:50:55.374Z,11.40
2022-12-17T08:53:59.300Z,10.30
2022-12-17T08:57:03.287Z,10.60
2022-12-17T09:00:06.800Z,10.50
2022-12-17T09:03:16.535Z,10.90
2022-12-17T09:06:20.983Z,11.60
2022-12-17T09:09:25.389Z,10.80
2022-12-17T09:12:29.721Z,9.67
2022-12-17T09:15:34.359Z,10.17
2022-12-17T09:18:39.730Z,11.77
2022-12-17T09:21:46.941Z,10.73
2022-12-17T09:24:53.810Z,9.30
2022-12-17T09:27:57.873Z,9.50
2022-12-17T09:31:02.159Z,9.70
2022-12-17T09:34:08.814Z,10.23
2022-12-17T09:37:12.627Z,9.40
2022-12-17T09:40:16.488Z,10.70
2022-12-17T09:43:26.971Z,10.27
2022-12-17T09:46:39.224Z,9.70
2022-12-17T09:49:46.585Z,10.87
2022-12-17T09:52:55.878Z,10.73
2022-12-17T09:56:06.969Z,11.40
2022-12-17T09:59:11.169Z,10.97
2022-12-17T10:02:15.430Z,12.33
2022-12-17T10:05:22.663Z,11.63
2022-12-17T10:08:33.492Z,11.13
2022-12-17T10:11:44.541Z,10.93
2022-12-17T10:14:48.901Z,10.80
2022-12-17T10:17:53.076Z,11.60
2022-12-17T10:21:05.002Z,10.30
2022-12-17T10:24:15.459Z,13.40
2022-12-17T10:27:38.326Z,13.20
2022-12-17T10:30:46.726Z,13.57
2022-12-17T10:33:57.282Z,12.37
2022-12-17T10:37:07.614Z,11.30
2022-12-17T10:40:17.665Z,8.97
2022-12-17T10:43:22.215Z,11.33
2022-12-17T10:46:26.149Z,11.80
2022-12-17T10:49:39.407Z,13.70
2022-12-17T10:52:50.008Z,13.17
2022-12-17T10:55:55.021Z,11.50
2022-12-17T10:59:17.625Z,12.00
2022-12-17T11:02:21.907Z,12.87
2022-12-17T11:05:49.414Z,14.07
2022-12-17T11:08:54.108Z,13.37
2022-12-17T11:12:02.854Z,12.57
2022-12-17T11:15:16.122Z,14.47
2022-12-17T11:18:21.022Z,11.57
2022-12-17T11:21:38.717Z,13.97
2022-12-17T11:24:50.544Z,12.70
2022-12-17T11:28:01.996Z,13.10
2022-12-17T11:31:16.201Z,13.97
2022-12-17T11:34:48.711Z,12.73
2022-12-17T11:38:04.347Z,12.77
2022-12-17T11:41:17.203Z,12.03
2022-12-17T11:44:39.543Z,14.50
2022-12-17T11:48:01.659Z,15.53
2022-12-17T11:51:09.980Z,14.97
2022-12-17T11:54:31.698Z,13.47
2022-12-17T11:58:05.454Z,14.20
2022-12-17T12:01:37.582Z,14.77
2022-12-17T12:05:10.383Z,14.73
2022-12-17T12:08:35.527Z,14.30
2022-12-17T12:11:42.948Z,13.83
2022-12-17T12:15:25.854Z,12.03
2022-12-17T12:18:42.741Z,14.80
2022-12-17T12:21:56.740Z,14.87
2022-12-17T12:25:30.757Z,12.00
2022-12-17T12:28:41.729Z,13.93
2022-12-17T12:31:53.859Z,12.93
2022-12-17T12:35:02.902Z,14.60
2022-12-17T12:38:07.422Z,14.37
2022-12-17T12:41:21.838Z,14.57
2022-12-17T12:44:40.334Z,14.50
2022-12-17T12:47:56.384Z,14.63
2022-12-17T12:51:19.232Z,14.97
2022-12-17T12:54:59.313Z,12.10
2022-12-17T12:58:22.769Z,12.67
2022-12-17T13:01:27.381Z,13.47
2022-12-17T13:04:40.163Z,11.40
2022-12-17T13:07:29.138Z,12.30
2022-12-17T13:10:29.506Z,13.30
2022-12-17T13:13:39.644Z,12.70
2022-12-17T13:16:47.219Z,11.40
2022-12-17T13:19:36.007Z,13.70
2022-12-17T13:22:24.271Z,12.53
2022-12-17T13:25:17.693Z,13.27
2022-12-17T13:28:06.211Z,12.93
2022-12-17T13:31:16.482Z,13.90
2022-12-17T13:34:36.604Z,12.17
2022-12-17T13:37:31.011Z,12.60
2022-12-17T13:40:35.687Z,14.30
2022-12-17T13:43:31.907Z,11.53
2022-12-17T13:46:26.721Z,12.10
2022-12-17T13:49:20.079Z,13.07
2022-12-17T13:52:16.186Z,13.13
2022-12-17T13:55:11.298Z,13.10
2022-12-17T13:57:57.927Z,12.63
2022-12-17T14:00:43.292Z,11.80
2022-12-17T14:03:49.915Z,10.93
2022-12-17T14:06:41.345Z,12.77
2022-12-17T14:09:37.365Z,12.40
2022-12-17T14:12:27.189Z,12.77
2022-12-17T14:15:33.329Z,10.90
2022-12-17T14:18:21.095Z,13.03
2022-12-17T14:21:08.556Z,11.97
2022-12-17T14:23:55.375Z,10.83
2022-12-17T14:26:51.729Z,11.23
2022-12-17T14:29:46.686Z,13.50
2022-12-17T14:32:36.346Z,12.80
2022-12-17T14:35:26.934Z,10.87
2022-12-17T14:38:48.346Z,12.03
2022-12-17T14:41:48.000Z,11.47
2022-12-17T14:44:33.910Z,13.40
2022-12-17T14:47:34.508Z,12.50
2022-12-17T14:50:20.358Z,12.07
2022-12-17T14:53:26.432Z,11.30
2022-12-17T14:56:22.908Z,9.27
2022-12-17T14:59:34.643Z,12.50
2022-12-17T15:02:24.141Z,11.63
2022-12-17T15:05:15.240Z,11.27
2022-12-17T15:08:01.196Z,12.37
2022-12-17T15:10:46.859Z,11.67
2022-12-17T15:13:32.445Z,11.90
2022-12-17T15:16:17.780Z,11.70
2022-12-17T15:19:06.305Z,12.23
2022-12-17T15:21:51.737Z,12.63
2022-12-17T15:24:37.087Z,12.67
2022-12-17T15:27:22.967Z,11.87
2022-12-17T15:30:13.590Z,10.80
2022-12-17T15:33:02.421Z,11.30
2022-12-17T15:35:47.818Z,11.97
2022-12-17T15:38:33.687Z,12.17
2022-12-17T15:41:39.902Z,11.40
2022-12-17T15:44:25.497Z,13.20
2022-12-17T15:47:11.105Z,10.87
2022-12-17T15:49:58.800Z,12.60
2022-12-17T15:52:46.946Z,11.80
2022-12-17T15:55:32.446Z,13.73
2022-12-17T15:58:19.241Z,10.63
2022-12-17T16:01:06.751Z,11.20
2022-12-17T16:03:52.686Z,10.30
2022-12-17T16:06:38.217Z,11.83
2022-12-17T16:09:25.992Z,11.47
2022-12-17T16:12:11.581Z,9.20
2022-12-17T16:14:57.056Z,12.47
2022-12-17T16:17:42.542Z,11.20
2022-12-17T16:20:28.375Z,11.20
2022-12-17T16:23:13.693Z,11.90
2022-12-17T16:26:01.670Z,11.17
2022-12-17T16:28:47.026Z,13.33
2022-12-17T16:31:35.038Z,11.43
2022-12-17T16:34:25.362Z,13.43
2022-12-17T16:37:13.062Z,12.33
2022-12-17T16:40:00.988Z,12.77
2022-12-17T16:42:49.281Z,12.13
2022-12-17T16:45:34.871Z,13.70
2022-12-17T16:48:21.968Z,12.43
2022-12-17T16:51:25.848Z,13.77
2022-12-17T16:54:18.517Z,11.70
2022-12-17T16:57:05.847Z,11.50
2022-12-17T16:59:51.147Z,11.83
2022-12-17T17:02:36.892Z,11.57
2022-12-17T17:05:22.324Z,13.70
2022-12-17T17:08:07.728Z,12.37
2022-12-17T17:10:53.192Z,13.23
2022-12-17T17:13:42.000Z,13.40
2022-12-17T17:16:34.196Z,13.60
2022-12-17T17:19:20.631Z,12.47
2022-12-17T17:22:10.217Z,13.20
2022-12-17T17:24:55.869Z,10.97
2022-12-17T17:27:47.840Z,12.63
2022-12-17T17:30:35.289Z,14.37
2022-12-17T17:33:20.531Z,11.37
2022-12-17T17:36:08.533Z,10.63
2022-12-17T17:38:59.943Z,11.07
2022-12-17T17:41:48.026Z,10.57
2022-12-17T17:44:34.228Z,12.00
2022-12-17T17:47:19.704Z,12.50
2022-12-17T17:50:05.648Z,11.50
2022-12-17T17:52:50.920Z,11.23
2022-12-17T17:55:36.474Z,11.93
2022-12-17T17:58:24.064Z,13.37
2022-12-17T18:01:12.361Z,11.83
2022-12-17T18:04:00.669Z,12.60
2022-12-17T18:07:16.066Z,12.57
2022-12-17T18:09:53.278Z,11.50
2022-12-17T18:12:57.275Z,10.57
2022-12-17T18:15:45.103Z,9.70
2022-12-17T18:18:30.622Z,11.80
2022-12-17T18:21:19.935Z,11.03
2022-12-17T18:24:17.426Z,13.13
2022-12-17T18:27:02.709Z,10.70
2022-12-17T18:29:51.107Z,11.03
2022-12-17T18:32:39.027Z,12.00
2022-12-17T18:35:27.478Z,9.73
2022-12-17T18:38:15.048Z,11.43
2022-12-17T18:41:29.214Z,10.90
2022-12-17T18:44:15.742Z,12.33
2022-12-17T18:47:01.737Z,11.33
2022-12-17T18:49:47.437Z,12.53
2022-12-17T18:52:32.947Z,11.47
2022-12-17T18:55:20.906Z,12.00
2022-12-17T18:58:08.201Z,13.27
2022-12-17T19:00:53.635Z,9.93
2022-12-17T19:03:41.386Z,10.70
2022-12-17T19:06:27.376Z,10.70
2022-12-17T19:09:23.067Z,10.50
2022-12-17T19:12:09.873Z,12.37
2022-12-17T19:14:57.630Z,11.50
2022-12-17T19:17:43.028Z,10.17
2022-12-17T19:20:28.311Z,10.60
2022-12-17T19:23:16.219Z,11.37
2022-12-17T19:26:17.392Z,11.50
2022-12-17T19:29:08.200Z,10.20
2022-12-17T19:31:53.573Z,10.30
2022-12-17T19:34:39.642Z,10.33
2022-12-17T19:37:25.820Z,8.73
2022-12-17T19:40:13.574Z,9.03
2022-12-17T19:42:59.391Z,10.40
2022-12-17T19:45:51.186Z,10.97
2022-12-17T19:48:46.492Z,9.70
2022-12-17T19:51:34.298Z,10.37
2022-12-17T19:54:19.692Z,9.33
2022-12-17T19:57:07.724Z,10.60
2022-12-17T19:59:53.050Z,9.40
2022-12-17T20:02:40.688Z,8.37
2022-12-17T20:05:26.714Z,8.10
2022-12-17T20:08:13.685Z,9.27
2022-12-17T20:11:03.301Z,8.93
2022-12-17T20:13:54.469Z,8.00
2022-12-17T20:16:48.212Z,8.80
2022-12-17T20:19:37.350Z,9.70
2022-12-17T20:22:22.810Z,10.50
2022-12-17T20:25:11.291Z,10.67
2022-12-17T20:27:56.513Z,10.37
2022-12-17T20:30:42.277Z,8.70
2022-12-17T20:33:28.022Z,8.90
2022-12-17T20:36:18.292Z,8.07
2022-12-17T20:39:07.556Z,8.07
2022-12-17T20:41:55.767Z,8.27
2022-12-17T20:44:41.714Z,8.37
2022-12-17T20:47:29.471Z,8.40
2022-12-17T20:50:14.858Z,8.30
2022-12-17T20:53:00.204Z,8.93
2022-12-17T20:55:46.746Z,11.30
2022-12-17T20:58:32.812Z,9.27
2022-12-17T21:01:21.248Z,11.17
2022-12-17T21:04:07.607Z,9.27
2022-12-17T21:06:54.474Z,8.80
2022-12-17T21:09:43.373Z,11.30
2022-12-17T21:12:48.982Z,9.73
2022-12-17T21:15:36.425Z,11.77
2022-12-17T21:18:21.940Z,8.80
2022-12-17T21:21:12.081Z,11.20
2022-12-17T21:23:58.696Z,10.13
2022-12-17T21:26:45.200Z,9.60
2022-12-17T21:29:35.381Z,8.70
2022-12-17T21:32:26.536Z,9.83
2022-12-17T21:35:17.929Z,8.27
2022-12-17T21:38:03.603Z,9.63
2022-12-17T21:40:51.177Z,8.83
2022-12-17T21:43:37.598Z,9.53
2022-12-17T21:46:27.327Z,10.00
2022-12-17T21:49:13.329Z,9.40
2022-12-17T21:52:01.921Z,9.73
2022-12-17T21:54:47.399Z,9.10
2022-12-17T21:57:32.655Z,8.70
2022-12-17T22:00:25.715Z,7.97
2022-12-17T22:03:10.979Z,8.90
2022-12-17T22:05:56.543Z,8.70
2022-12-17T22:08:42.983Z,9.37
2022-12-17T22:11:29.147Z,9.80
2022-12-17T22:14:20.630Z,8.63
2022-12-17T22:17:06.710Z,10.37
2022-12-17T22:19:59.870Z,8.70
2022-12-17T22:22:45.507Z,8.77
2022-12-17T22:25:31.067Z,6.90
2022-12-17T22:28:16.851Z,8.80
2022-12-17T22:31:26.638Z,7.63
2022-12-17T22:34:37.102Z,8.10
2022-12-17T22:40:34.804Z,8.47
2022-12-17T22:44:35.921Z,8.77
2022-12-17T22:44:52.218Z,8.60
2022-12-17T22:46:41.480Z,8.57
2022-12-17T22:49:29.619Z,10.90
2022-12-17T22:52:17.517Z,8.83
2022-12-17T22:55:05.095Z,7.50
2022-12-17T22:57:50.811Z,10.63
2022-12-17T23:00:39.026Z,9.50
2022-12-17T23:03:24.336Z,9.40
2022-12-17T23:06:22.804Z,8.07
2022-12-17T23:09:08.302Z,9.20
2022-12-17T23:11:53.666Z,9.67
2022-12-17T23:14:38.812Z,7.33
2022-12-17T23:17:24.422Z,7.60
2022-12-17T23:20:12.386Z,8.23
2022-12-17T23:23:00.151Z,8.53
2022-12-17T23:25:51.020Z,8.50
2022-12-17T23:28:40.036Z,7.73
2022-12-17T23:31:31.688Z,8.63
2022-12-17T23:34:17.149Z,6.97
2022-12-17T23:37:02.391Z,8.93
2022-12-17T23:39:47.934Z,8.27
2022-12-17T23:42:33.567Z,9.33
2022-12-17T23:45:19.081Z,8.77
2022-12-17T23:48:05.220Z,8.90
2022-12-17T23:50:50.597Z,8.43
2022-12-17T23:53:41.774Z,7.80
2022-12-17T23:56:28.455Z,8.57
2022-12-17T23:59:14.443Z,10.43
